sensor_id;sensor_type;location;lat;lon;timestamp;P1;durP1;ratioP1;P2;durP2;ratioP2
4084;SDS011;2057;50.858;6.572;2023-03-23T00:01:51;5.73;;;3.30;;
4084;SDS011;2057;50.858;6.572;2023-03-23T00:04:17;5.27;;;2.20;;
4084;SDS011;2057;50.858;6.572;2023-03-23T00:06:42;5.13;;;2.90;;
4084;SDS011;2057;50.858;6.572;2023-03-23T00:09:10;4.70;;;2.60;;
4084;SDS011;2057;50.858;6.572;2023-03-23T00:11:37;4.80;;;2.93;;
4084;SDS011;2057;50.858;6.572;2023-03-23T00:14:03;5.30;;;3.30;;
4084;SDS011;2057;50.858;6.572;2023-03-23T00:16:30;3.10;;;2.00;;
4084;SDS011;2057;50.858;6.572;2023-03-23T00:19:10;7.03;;;3.13;;
4084;SDS011;2057;50.858;6.572;2023-03-23T00:21:40;4.20;;;2.63;;
4084;SDS011;2057;50.858;6.572;2023-03-23T00:26:44;3.60;;;2.90;;
4084;SDS011;2057;50.858;6.572;2023-03-23T00:31:44;2.17;;;2.00;;
4084;SDS011;2057;50.858;6.572;2023-03-23T00:34:17;3.10;;;2.53;;
4084;SDS011;2057;50.858;6.572;2023-03-23T00:36:49;3.23;;;2.93;;
4084;SDS011;2057;50.858;6.572;2023-03-23T00:39:22;4.60;;;2.27;;
4084;SDS011;2057;50.858;6.572;2023-03-23T00:41:51;3.57;;;2.50;;
4084;SDS011;2057;50.858;6.572;2023-03-23T00:44:18;9.30;;;3.70;;
4084;SDS011;2057;50.858;6.572;2023-03-23T00:46:44;4.67;;;2.77;;
4084;SDS011;2057;50.858;6.572;2023-03-23T00:49:14;5.10;;;2.50;;
4084;SDS011;2057;50.858;6.572;2023-03-23T00:51:41;3.50;;;2.63;;
4084;SDS011;2057;50.858;6.572;2023-03-23T00:54:07;3.60;;;2.70;;
4084;SDS011;2057;50.858;6.572;2023-03-23T00:56:33;3.57;;;2.67;;
4084;SDS011;2057;50.858;6.572;2023-03-23T00:58:58;8.10;;;2.57;;
4084;SDS011;2057;50.858;6.572;2023-03-23T01:01:24;9.63;;;3.10;;
4084;SDS011;2057;50.858;6.572;2023-03-23T01:03:49;7.13;;;2.50;;
4084;SDS011;2057;50.858;6.572;2023-03-23T01:06:15;6.80;;;3.23;;
4084;SDS011;2057;50.858;6.572;2023-03-23T01:08:40;3.60;;;3.00;;
4084;SDS011;2057;50.858;6.572;2023-03-23T01:11:10;2.90;;;2.47;;
4084;SDS011;2057;50.858;6.572;2023-03-23T01:13:38;4.57;;;2.77;;
4084;SDS011;2057;50.858;6.572;2023-03-23T01:16:06;3.07;;;2.50;;
4084;SDS011;2057;50.858;6.572;2023-03-23T01:18:31;2.40;;;2.20;;
4084;SDS011;2057;50.858;6.572;2023-03-23T01:20:57;4.10;;;2.73;;
4084;SDS011;2057;50.858;6.572;2023-03-23T01:23:22;4.03;;;2.37;;
4084;SDS011;2057;50.858;6.572;2023-03-23T01:25:47;3.80;;;2.77;;
4084;SDS011;2057;50.858;6.572;2023-03-23T01:28:14;4.13;;;3.37;;
4084;SDS011;2057;50.858;6.572;2023-03-23T01:30:39;4.53;;;3.10;;
4084;SDS011;2057;50.858;6.572;2023-03-23T01:33:05;4.73;;;2.10;;
4084;SDS011;2057;50.858;6.572;2023-03-23T01:35:30;6.20;;;2.80;;
4084;SDS011;2057;50.858;6.572;2023-03-23T01:38:02;9.57;;;2.67;;
4084;SDS011;2057;50.858;6.572;2023-03-23T01:40:27;3.10;;;2.43;;
4084;SDS011;2057;50.858;6.572;2023-03-23T01:42:53;2.80;;;2.60;;
4084;SDS011;2057;50.858;6.572;2023-03-23T01:47:55;9.83;;;3.60;;
4084;SDS011;2057;50.858;6.572;2023-03-23T01:50:24;4.97;;;2.50;;
4084;SDS011;2057;50.858;6.572;2023-03-23T01:52:52;2.93;;;2.50;;
4084;SDS011;2057;50.858;6.572;2023-03-23T01:55:20;3.27;;;2.80;;
4084;SDS011;2057;50.858;6.572;2023-03-23T01:57:47;5.80;;;3.23;;
4084;SDS011;2057;50.858;6.572;2023-03-23T02:00:14;3.67;;;2.20;;
4084;SDS011;2057;50.858;6.572;2023-03-23T02:02:44;7.67;;;2.90;;
4084;SDS011;2057;50.858;6.572;2023-03-23T02:05:16;2.37;;;2.17;;
4084;SDS011;2057;50.858;6.572;2023-03-23T02:08:04;3.73;;;2.20;;
4084;SDS011;2057;50.858;6.572;2023-03-23T02:10:32;3.90;;;2.00;;
4084;SDS011;2057;50.858;6.572;2023-03-23T02:12:58;2.83;;;2.03;;
4084;SDS011;2057;50.858;6.572;2023-03-23T02:15:32;4.60;;;2.40;;
4084;SDS011;2057;50.858;6.572;2023-03-23T02:18:27;2.40;;;2.20;;
4084;SDS011;2057;50.858;6.572;2023-03-23T02:34:52;3.10;;;2.50;;
4084;SDS011;2057;50.858;6.572;2023-03-23T02:37:24;3.53;;;2.57;;
4084;SDS011;2057;50.858;6.572;2023-03-23T02:39:58;3.00;;;2.43;;
4084;SDS011;2057;50.858;6.572;2023-03-23T02:42:35;3.10;;;2.57;;
4084;SDS011;2057;50.858;6.572;2023-03-23T02:45:05;3.70;;;2.73;;
4084;SDS011;2057;50.858;6.572;2023-03-23T02:47:33;7.73;;;3.13;;
4084;SDS011;2057;50.858;6.572;2023-03-23T02:50:01;2.77;;;2.20;;
4084;SDS011;2057;50.858;6.572;2023-03-23T02:52:27;8.10;;;3.23;;
4084;SDS011;2057;50.858;6.572;2023-03-23T02:54:56;6.53;;;2.67;;
4084;SDS011;2057;50.858;6.572;2023-03-23T02:57:27;3.10;;;2.73;;
4084;SDS011;2057;50.858;6.572;2023-03-23T02:59:52;6.83;;;4.00;;
4084;SDS011;2057;50.858;6.572;2023-03-23T03:02:22;5.80;;;2.63;;
4084;SDS011;2057;50.858;6.572;2023-03-23T03:04:52;7.03;;;2.80;;
4084;SDS011;2057;50.858;6.572;2023-03-23T03:10:16;4.80;;;2.53;;
4084;SDS011;2057;50.858;6.572;2023-03-23T03:15:37;2.50;;;2.20;;
4084;SDS011;2057;50.858;6.572;2023-03-23T03:18:12;3.40;;;2.57;;
4084;SDS011;2057;50.858;6.572;2023-03-23T03:21:06;2.73;;;2.23;;
4084;SDS011;2057;50.858;6.572;2023-03-23T03:23:36;3.80;;;2.63;;
4084;SDS011;2057;50.858;6.572;2023-03-23T03:26:06;2.50;;;2.30;;
4084;SDS011;2057;50.858;6.572;2023-03-23T03:28:34;2.47;;;2.27;;
4084;SDS011;2057;50.858;6.572;2023-03-23T03:31:01;6.13;;;2.40;;
4084;SDS011;2057;50.858;6.572;2023-03-23T03:33:31;3.93;;;2.50;;
4084;SDS011;2057;50.858;6.572;2023-03-23T03:36:02;3.57;;;2.50;;
4084;SDS011;2057;50.858;6.572;2023-03-23T03:38:40;4.00;;;2.57;;
4084;SDS011;2057;50.858;6.572;2023-03-23T03:41:10;3.20;;;2.90;;
4084;SDS011;2057;50.858;6.572;2023-03-23T03:43:35;3.70;;;2.80;;
4084;SDS011;2057;50.858;6.572;2023-03-23T03:46:01;2.70;;;2.00;;
4084;SDS011;2057;50.858;6.572;2023-03-23T03:48:26;4.20;;;3.00;;
4084;SDS011;2057;50.858;6.572;2023-03-23T03:50:51;4.43;;;2.37;;
4084;SDS011;2057;50.858;6.572;2023-03-23T03:53:17;4.23;;;2.67;;
4084;SDS011;2057;50.858;6.572;2023-03-23T03:55:43;4.57;;;2.40;;
4084;SDS011;2057;50.858;6.572;2023-03-23T03:58:10;4.63;;;2.97;;
4084;SDS011;2057;50.858;6.572;2023-03-23T04:00:35;3.97;;;2.50;;
4084;SDS011;2057;50.858;6.572;2023-03-23T04:03:01;5.07;;;2.27;;
4084;SDS011;2057;50.858;6.572;2023-03-23T04:05:26;2.87;;;2.57;;
4084;SDS011;2057;50.858;6.572;2023-03-23T04:07:53;2.33;;;2.13;;
4084;SDS011;2057;50.858;6.572;2023-03-23T04:10:26;3.20;;;2.70;;
4084;SDS011;2057;50.858;6.572;2023-03-23T04:12:52;2.73;;;2.43;;
4084;SDS011;2057;50.858;6.572;2023-03-23T04:15:17;5.60;;;2.40;;
4084;SDS011;2057;50.858;6.572;2023-03-23T04:17:43;2.97;;;2.70;;
4084;SDS011;2057;50.858;6.572;2023-03-23T04:20:08;2.83;;;2.50;;
4084;SDS011;2057;50.858;6.572;2023-03-23T04:22:42;7.10;;;3.23;;
4084;SDS011;2057;50.858;6.572;2023-03-23T04:25:10;2.77;;;2.23;;
4084;SDS011;2057;50.858;6.572;2023-03-23T04:27:37;3.37;;;2.37;;
4084;SDS011;2057;50.858;6.572;2023-03-23T04:30:08;4.00;;;2.10;;
4084;SDS011;2057;50.858;6.572;2023-03-23T04:32:34;3.37;;;2.30;;
4084;SDS011;2057;50.858;6.572;2023-03-23T04:35:00;2.27;;;2.17;;
4084;SDS011;2057;50.858;6.572;2023-03-23T04:37:26;4.57;;;3.43;;
4084;SDS011;2057;50.858;6.572;2023-03-23T04:39:59;4.90;;;2.70;;
4084;SDS011;2057;50.858;6.572;2023-03-23T04:42:33;6.50;;;2.73;;
4084;SDS011;2057;50.858;6.572;2023-03-23T04:44:59;3.60;;;2.30;;
4084;SDS011;2057;50.858;6.572;2023-03-23T04:47:26;2.70;;;2.30;;
4084;SDS011;2057;50.858;6.572;2023-03-23T04:49:55;2.47;;;2.27;;
4084;SDS011;2057;50.858;6.572;2023-03-23T04:52:24;3.43;;;2.70;;
4084;SDS011;2057;50.858;6.572;2023-03-23T04:54:51;5.63;;;2.40;;
4084;SDS011;2057;50.858;6.572;2023-03-23T04:57:17;4.10;;;2.30;;
4084;SDS011;2057;50.858;6.572;2023-03-23T04:59:42;3.50;;;1.93;;
4084;SDS011;2057;50.858;6.572;2023-03-23T05:02:09;2.43;;;2.23;;
4084;SDS011;2057;50.858;6.572;2023-03-23T05:04:34;6.50;;;2.40;;
4084;SDS011;2057;50.858;6.572;2023-03-23T05:07:02;3.80;;;2.20;;
4084;SDS011;2057;50.858;6.572;2023-03-23T05:09:28;3.43;;;2.07;;
4084;SDS011;2057;50.858;6.572;2023-03-23T05:11:53;2.93;;;2.10;;
4084;SDS011;2057;50.858;6.572;2023-03-23T05:14:18;4.90;;;2.03;;
4084;SDS011;2057;50.858;6.572;2023-03-23T05:16:44;2.17;;;1.97;;
4084;SDS011;2057;50.858;6.572;2023-03-23T05:19:13;2.10;;;1.90;;
4084;SDS011;2057;50.858;6.572;2023-03-23T05:21:39;2.30;;;2.10;;
4084;SDS011;2057;50.858;6.572;2023-03-23T05:24:05;5.70;;;1.97;;
4084;SDS011;2057;50.858;6.572;2023-03-23T05:26:30;4.03;;;2.27;;
4084;SDS011;2057;50.858;6.572;2023-03-23T05:28:57;3.97;;;1.87;;
4084;SDS011;2057;50.858;6.572;2023-03-23T05:31:23;5.27;;;1.93;;
4084;SDS011;2057;50.858;6.572;2023-03-23T05:33:49;2.57;;;1.90;;
4084;SDS011;2057;50.858;6.572;2023-03-23T05:36:17;4.90;;;2.20;;
4084;SDS011;2057;50.858;6.572;2023-03-23T05:38:43;6.57;;;2.40;;
4084;SDS011;2057;50.858;6.572;2023-03-23T05:41:10;3.77;;;2.00;;
4084;SDS011;2057;50.858;6.572;2023-03-23T05:43:37;6.20;;;2.00;;
4084;SDS011;2057;50.858;6.572;2023-03-23T05:46:02;2.50;;;1.70;;
4084;SDS011;2057;50.858;6.572;2023-03-23T05:48:28;4.97;;;2.20;;
4084;SDS011;2057;50.858;6.572;2023-03-23T05:50:53;6.70;;;2.33;;
4084;SDS011;2057;50.858;6.572;2023-03-23T05:53:19;4.57;;;2.10;;
4084;SDS011;2057;50.858;6.572;2023-03-23T05:55:44;7.60;;;2.40;;
4084;SDS011;2057;50.858;6.572;2023-03-23T05:58:10;6.50;;;2.50;;
4084;SDS011;2057;50.858;6.572;2023-03-23T06:00:35;5.33;;;2.13;;
4084;SDS011;2057;50.858;6.572;2023-03-23T06:03:01;4.57;;;1.60;;
4084;SDS011;2057;50.858;6.572;2023-03-23T06:05:27;6.47;;;2.17;;
4084;SDS011;2057;50.858;6.572;2023-03-23T06:07:54;4.07;;;1.70;;
4084;SDS011;2057;50.858;6.572;2023-03-23T06:10:19;4.47;;;2.00;;
4084;SDS011;2057;50.858;6.572;2023-03-23T06:12:49;5.43;;;1.73;;
4084;SDS011;2057;50.858;6.572;2023-03-23T06:15:18;5.10;;;1.80;;
4084;SDS011;2057;50.858;6.572;2023-03-23T06:17:43;5.77;;;2.00;;
4084;SDS011;2057;50.858;6.572;2023-03-23T06:20:09;4.50;;;1.87;;
4084;SDS011;2057;50.858;6.572;2023-03-23T06:22:36;8.13;;;2.50;;
4084;SDS011;2057;50.858;6.572;2023-03-23T06:25:05;3.50;;;1.87;;
4084;SDS011;2057;50.858;6.572;2023-03-23T06:27:32;5.70;;;1.90;;
4084;SDS011;2057;50.858;6.572;2023-03-23T06:29:57;5.33;;;2.03;;
4084;SDS011;2057;50.858;6.572;2023-03-23T06:32:23;3.33;;;1.43;;
4084;SDS011;2057;50.858;6.572;2023-03-23T06:34:51;2.73;;;1.60;;
4084;SDS011;2057;50.858;6.572;2023-03-23T06:37:16;7.57;;;2.43;;
4084;SDS011;2057;50.858;6.572;2023-03-23T06:39:41;2.87;;;1.83;;
4084;SDS011;2057;50.858;6.572;2023-03-23T06:42:10;3.57;;;1.57;;
4084;SDS011;2057;50.858;6.572;2023-03-23T06:44:36;3.83;;;2.07;;
4084;SDS011;2057;50.858;6.572;2023-03-23T06:47:02;7.33;;;2.00;;
4084;SDS011;2057;50.858;6.572;2023-03-23T06:49:28;4.70;;;1.37;;
4084;SDS011;2057;50.858;6.572;2023-03-23T06:51:53;5.23;;;2.00;;
4084;SDS011;2057;50.858;6.572;2023-03-23T06:54:20;5.83;;;2.30;;
4084;SDS011;2057;50.858;6.572;2023-03-23T06:56:46;3.53;;;1.40;;
4084;SDS011;2057;50.858;6.572;2023-03-23T06:59:11;9.50;;;2.80;;
4084;SDS011;2057;50.858;6.572;2023-03-23T07:01:37;8.57;;;2.30;;
4084;SDS011;2057;50.858;6.572;2023-03-23T07:04:03;6.30;;;1.63;;
4084;SDS011;2057;50.858;6.572;2023-03-23T07:06:28;4.30;;;2.33;;
4084;SDS011;2057;50.858;6.572;2023-03-23T07:08:54;4.50;;;1.70;;
4084;SDS011;2057;50.858;6.572;2023-03-23T07:11:19;4.40;;;1.87;;
4084;SDS011;2057;50.858;6.572;2023-03-23T07:13:45;4.73;;;1.50;;
4084;SDS011;2057;50.858;6.572;2023-03-23T07:16:11;8.50;;;2.63;;
4084;SDS011;2057;50.858;6.572;2023-03-23T07:18:36;3.23;;;1.43;;
4084;SDS011;2057;50.858;6.572;2023-03-23T07:21:02;4.73;;;1.53;;
4084;SDS011;2057;50.858;6.572;2023-03-23T07:23:28;11.83;;;2.20;;
4084;SDS011;2057;50.858;6.572;2023-03-23T07:25:55;4.20;;;1.73;;
4084;SDS011;2057;50.858;6.572;2023-03-23T07:28:21;2.90;;;2.00;;
4084;SDS011;2057;50.858;6.572;2023-03-23T07:30:50;12.77;;;2.23;;
4084;SDS011;2057;50.858;6.572;2023-03-23T07:33:15;8.00;;;2.07;;
4084;SDS011;2057;50.858;6.572;2023-03-23T07:35:41;4.63;;;1.73;;
4084;SDS011;2057;50.858;6.572;2023-03-23T07:38:06;6.73;;;2.10;;
4084;SDS011;2057;50.858;6.572;2023-03-23T07:40:32;2.70;;;1.57;;
4084;SDS011;2057;50.858;6.572;2023-03-23T07:43:00;5.23;;;2.00;;
4084;SDS011;2057;50.858;6.572;2023-03-23T07:45:27;10.67;;;2.47;;
4084;SDS011;2057;50.858;6.572;2023-03-23T07:47:53;3.27;;;1.70;;
4084;SDS011;2057;50.858;6.572;2023-03-23T07:50:19;3.40;;;2.03;;
4084;SDS011;2057;50.858;6.572;2023-03-23T07:52:49;17.43;;;2.37;;
4084;SDS011;2057;50.858;6.572;2023-03-23T07:55:15;2.40;;;1.80;;
4084;SDS011;2057;50.858;6.572;2023-03-23T07:57:44;4.43;;;1.70;;
4084;SDS011;2057;50.858;6.572;2023-03-23T08:00:10;6.47;;;1.90;;
4084;SDS011;2057;50.858;6.572;2023-03-23T08:02:48;6.70;;;1.93;;
4084;SDS011;2057;50.858;6.572;2023-03-23T08:05:15;10.43;;;2.90;;
4084;SDS011;2057;50.858;6.572;2023-03-23T08:07:42;8.10;;;2.63;;
4084;SDS011;2057;50.858;6.572;2023-03-23T08:10:11;9.23;;;2.30;;
4084;SDS011;2057;50.858;6.572;2023-03-23T08:12:37;7.27;;;2.17;;
4084;SDS011;2057;50.858;6.572;2023-03-23T08:15:04;6.73;;;2.17;;
4084;SDS011;2057;50.858;6.572;2023-03-23T08:17:32;5.50;;;2.20;;
4084;SDS011;2057;50.858;6.572;2023-03-23T08:19:58;13.77;;;1.90;;
4084;SDS011;2057;50.858;6.572;2023-03-23T08:22:23;4.53;;;2.00;;
4084;SDS011;2057;50.858;6.572;2023-03-23T08:24:51;14.90;;;2.37;;
4084;SDS011;2057;50.858;6.572;2023-03-23T08:27:17;2.37;;;1.80;;
4084;SDS011;2057;50.858;6.572;2023-03-23T08:29:46;5.60;;;2.93;;
4084;SDS011;2057;50.858;6.572;2023-03-23T08:32:11;10.70;;;2.03;;
4084;SDS011;2057;50.858;6.572;2023-03-23T08:34:37;9.93;;;2.93;;
4084;SDS011;2057;50.858;6.572;2023-03-23T08:37:03;6.37;;;1.80;;
4084;SDS011;2057;50.858;6.572;2023-03-23T08:39:29;4.60;;;1.80;;
4084;SDS011;2057;50.858;6.572;2023-03-23T08:41:55;5.57;;;1.90;;
4084;SDS011;2057;50.858;6.572;2023-03-23T08:44:21;7.13;;;2.60;;
4084;SDS011;2057;50.858;6.572;2023-03-23T08:46:47;9.40;;;1.63;;
4084;SDS011;2057;50.858;6.572;2023-03-23T08:49:14;5.43;;;1.83;;
4084;SDS011;2057;50.858;6.572;2023-03-23T08:51:40;5.03;;;1.43;;
4084;SDS011;2057;50.858;6.572;2023-03-23T08:54:07;3.67;;;1.67;;
4084;SDS011;2057;50.858;6.572;2023-03-23T08:56:32;9.90;;;2.07;;
4084;SDS011;2057;50.858;6.572;2023-03-23T08:58:58;10.27;;;2.73;;
4084;SDS011;2057;50.858;6.572;2023-03-23T09:01:23;6.83;;;1.97;;
4084;SDS011;2057;50.858;6.572;2023-03-23T09:03:51;7.60;;;3.33;;
4084;SDS011;2057;50.858;6.572;2023-03-23T09:06:17;5.00;;;1.83;;
4084;SDS011;2057;50.858;6.572;2023-03-23T09:08:42;9.27;;;1.97;;
4084;SDS011;2057;50.858;6.572;2023-03-23T09:11:09;7.13;;;2.57;;
4084;SDS011;2057;50.858;6.572;2023-03-23T09:13:35;8.13;;;2.27;;
4084;SDS011;2057;50.858;6.572;2023-03-23T09:16:04;6.67;;;2.70;;
4084;SDS011;2057;50.858;6.572;2023-03-23T09:18:31;12.07;;;2.43;;
4084;SDS011;2057;50.858;6.572;2023-03-23T09:20:57;5.63;;;2.30;;
4084;SDS011;2057;50.858;6.572;2023-03-23T09:23:23;7.90;;;2.43;;
4084;SDS011;2057;50.858;6.572;2023-03-23T09:25:49;5.83;;;2.20;;
4084;SDS011;2057;50.858;6.572;2023-03-23T09:28:16;18.67;;;3.37;;
4084;SDS011;2057;50.858;6.572;2023-03-23T09:30:41;8.40;;;2.10;;
4084;SDS011;2057;50.858;6.572;2023-03-23T09:33:10;4.00;;;2.03;;
4084;SDS011;2057;50.858;6.572;2023-03-23T09:35:36;13.30;;;2.40;;
4084;SDS011;2057;50.858;6.572;2023-03-23T09:38:03;12.37;;;2.27;;
4084;SDS011;2057;50.858;6.572;2023-03-23T09:48:37;6.70;;;2.40;;
4084;SDS011;2057;50.858;6.572;2023-03-23T09:53:45;10.60;;;1.93;;
4084;SDS011;2057;50.858;6.572;2023-03-23T09:56:15;4.67;;;1.93;;
4084;SDS011;2057;50.858;6.572;2023-03-23T09:58:46;7.67;;;1.83;;
4084;SDS011;2057;50.858;6.572;2023-03-23T10:06:41;3.10;;;1.30;;
4084;SDS011;2057;50.858;6.572;2023-03-23T10:09:08;1.73;;;1.20;;
4084;SDS011;2057;50.858;6.572;2023-03-23T10:14:31;3.60;;;1.50;;
4084;SDS011;2057;50.858;6.572;2023-03-23T10:22:56;1.13;;;0.90;;
4084;SDS011;2057;50.858;6.572;2023-03-23T10:25:31;4.60;;;1.23;;
4084;SDS011;2057;50.858;6.572;2023-03-23T10:30:36;5.00;;;1.23;;
4084;SDS011;2057;50.858;6.572;2023-03-23T10:33:16;1.70;;;1.43;;
4084;SDS011;2057;50.858;6.572;2023-03-23T10:35:50;2.00;;;1.00;;
4084;SDS011;2057;50.858;6.572;2023-03-23T10:38:26;2.60;;;1.67;;
4084;SDS011;2057;50.858;6.572;2023-03-23T10:41:01;1.30;;;1.20;;
4084;SDS011;2057;50.858;6.572;2023-03-23T10:43:32;2.87;;;1.60;;
4084;SDS011;2057;50.858;6.572;2023-03-23T10:46:02;1.30;;;1.20;;
4084;SDS011;2057;50.858;6.572;2023-03-23T10:48:47;3.83;;;1.43;;
4084;SDS011;2057;50.858;6.572;2023-03-23T10:51:16;6.30;;;1.20;;
4084;SDS011;2057;50.858;6.572;2023-03-23T10:53:49;6.77;;;1.77;;
4084;SDS011;2057;50.858;6.572;2023-03-23T10:56:24;1.43;;;1.33;;
4084;SDS011;2057;50.858;6.572;2023-03-23T10:58:52;2.33;;;1.40;;
4084;SDS011;2057;50.858;6.572;2023-03-23T11:01:20;8.50;;;1.93;;
4084;SDS011;2057;50.858;6.572;2023-03-23T11:03:54;2.20;;;1.50;;
4084;SDS011;2057;50.858;6.572;2023-03-23T11:06:22;2.07;;;1.20;;
4084;SDS011;2057;50.858;6.572;2023-03-23T11:08:56;1.37;;;1.20;;
4084;SDS011;2057;50.858;6.572;2023-03-23T11:11:29;3.90;;;1.80;;
4084;SDS011;2057;50.858;6.572;2023-03-23T11:14:01;3.17;;;1.13;;
4084;SDS011;2057;50.858;6.572;2023-03-23T11:16:43;1.73;;;1.10;;
4084;SDS011;2057;50.858;6.572;2023-03-23T11:19:12;2.60;;;1.10;;
4084;SDS011;2057;50.858;6.572;2023-03-23T11:21:40;5.07;;;1.77;;
4084;SDS011;2057;50.858;6.572;2023-03-23T11:24:11;5.77;;;1.17;;
4084;SDS011;2057;50.858;6.572;2023-03-23T11:26:37;2.10;;;0.80;;
4084;SDS011;2057;50.858;6.572;2023-03-23T11:29:08;1.27;;;1.10;;
4084;SDS011;2057;50.858;6.572;2023-03-23T11:31:36;2.00;;;1.07;;
4084;SDS011;2057;50.858;6.572;2023-03-23T11:36:42;1.57;;;0.90;;
4084;SDS011;2057;50.858;6.572;2023-03-23T11:39:26;2.37;;;1.20;;
4084;SDS011;2057;50.858;6.572;2023-03-23T11:41:57;1.43;;;1.10;;
4084;SDS011;2057;50.858;6.572;2023-03-23T11:44:33;5.93;;;1.77;;
4084;SDS011;2057;50.858;6.572;2023-03-23T11:47:05;1.30;;;1.20;;
4084;SDS011;2057;50.858;6.572;2023-03-23T11:52:36;2.20;;;1.00;;
4084;SDS011;2057;50.858;6.572;2023-03-23T11:57:48;2.97;;;1.03;;
4084;SDS011;2057;50.858;6.572;2023-03-23T12:05:36;4.73;;;1.73;;
4084;SDS011;2057;50.858;6.572;2023-03-23T12:13:26;4.20;;;1.33;;
4084;SDS011;2057;50.858;6.572;2023-03-23T12:16:09;8.03;;;2.07;;
4084;SDS011;2057;50.858;6.572;2023-03-23T12:25:08;2.53;;;1.43;;
4084;SDS011;2057;50.858;6.572;2023-03-23T12:38:39;2.03;;;1.20;;
4084;SDS011;2057;50.858;6.572;2023-03-23T12:41:49;5.63;;;1.70;;
4084;SDS011;2057;50.858;6.572;2023-03-23T12:44:13;5.30;;;1.83;;
4084;SDS011;2057;50.858;6.572;2023-03-23T12:54:42;3.23;;;1.53;;
4084;SDS011;2057;50.858;6.572;2023-03-23T13:00:25;4.23;;;1.30;;
4084;SDS011;2057;50.858;6.572;2023-03-23T13:03:23;3.47;;;1.60;;
4084;SDS011;2057;50.858;6.572;2023-03-23T13:08:56;2.17;;;1.30;;
4084;SDS011;2057;50.858;6.572;2023-03-23T13:19:19;3.13;;;1.10;;
4084;SDS011;2057;50.858;6.572;2023-03-23T13:22:07;6.50;;;1.70;;
4084;SDS011;2057;50.858;6.572;2023-03-23T13:24:56;2.33;;;1.80;;
4084;SDS011;2057;50.858;6.572;2023-03-23T13:27:26;3.23;;;1.73;;
4084;SDS011;2057;50.858;6.572;2023-03-23T13:29:56;6.23;;;1.50;;
4084;SDS011;2057;50.858;6.572;2023-03-23T13:35:05;4.20;;;2.00;;
4084;SDS011;2057;50.858;6.572;2023-03-23T13:37:44;8.50;;;2.00;;
4084;SDS011;2057;50.858;6.572;2023-03-23T13:40:28;3.23;;;1.30;;
4084;SDS011;2057;50.858;6.572;2023-03-23T13:42:55;8.33;;;1.57;;
4084;SDS011;2057;50.858;6.572;2023-03-23T13:50:49;5.40;;;1.70;;
4084;SDS011;2057;50.858;6.572;2023-03-23T13:53:21;5.40;;;2.00;;
4084;SDS011;2057;50.858;6.572;2023-03-23T13:55:50;8.50;;;2.03;;
4084;SDS011;2057;50.858;6.572;2023-03-23T13:58:28;2.50;;;1.43;;
4084;SDS011;2057;50.858;6.572;2023-03-23T14:01:16;5.03;;;1.97;;
4084;SDS011;2057;50.858;6.572;2023-03-23T14:03:48;5.63;;;2.17;;
4084;SDS011;2057;50.858;6.572;2023-03-23T14:06:21;9.20;;;2.13;;
4084;SDS011;2057;50.858;6.572;2023-03-23T14:08:50;2.53;;;1.67;;
4084;SDS011;2057;50.858;6.572;2023-03-23T14:14:05;5.20;;;2.13;;
4084;SDS011;2057;50.858;6.572;2023-03-23T14:16:35;3.23;;;1.77;;
4084;SDS011;2057;50.858;6.572;2023-03-23T14:19:12;5.33;;;2.33;;
4084;SDS011;2057;50.858;6.572;2023-03-23T14:21:41;8.43;;;1.90;;
4084;SDS011;2057;50.858;6.572;2023-03-23T14:24:23;12.07;;;2.73;;
4084;SDS011;2057;50.858;6.572;2023-03-23T14:26:52;5.60;;;2.03;;
4084;SDS011;2057;50.858;6.572;2023-03-23T14:29:25;4.17;;;1.60;;
4084;SDS011;2057;50.858;6.572;2023-03-23T14:31:55;3.50;;;1.73;;
4084;SDS011;2057;50.858;6.572;2023-03-23T14:34:24;2.80;;;1.73;;
4084;SDS011;2057;50.858;6.572;2023-03-23T14:36:51;5.30;;;1.63;;
4084;SDS011;2057;50.858;6.572;2023-03-23T14:41:53;1.73;;;1.40;;
4084;SDS011;2057;50.858;6.572;2023-03-23T14:44:28;3.67;;;1.90;;
4084;SDS011;2057;50.858;6.572;2023-03-23T14:46:56;3.67;;;1.70;;
4084;SDS011;2057;50.858;6.572;2023-03-23T14:49:29;6.63;;;2.07;;
4084;SDS011;2057;50.858;6.572;2023-03-23T14:52:02;4.63;;;1.73;;
4084;SDS011;2057;50.858;6.572;2023-03-23T14:54:38;3.57;;;1.90;;
4084;SDS011;2057;50.858;6.572;2023-03-23T14:57:13;2.70;;;2.13;;
4084;SDS011;2057;50.858;6.572;2023-03-23T14:59:41;4.80;;;1.93;;
4084;SDS011;2057;50.858;6.572;2023-03-23T15:04:45;6.00;;;1.83;;
4084;SDS011;2057;50.858;6.572;2023-03-23T15:07:16;4.50;;;2.30;;
4084;SDS011;2057;50.858;6.572;2023-03-23T15:09:43;16.83;;;2.70;;
4084;SDS011;2057;50.858;6.572;2023-03-23T15:12:17;3.77;;;2.27;;
4084;SDS011;2057;50.858;6.572;2023-03-23T15:14:48;2.77;;;2.00;;
4084;SDS011;2057;50.858;6.572;2023-03-23T15:17:22;5.57;;;2.10;;
4084;SDS011;2057;50.858;6.572;2023-03-23T15:19:49;3.20;;;2.20;;
4084;SDS011;2057;50.858;6.572;2023-03-23T15:22:21;2.63;;;1.80;;
4084;SDS011;2057;50.858;6.572;2023-03-23T15:24:49;6.37;;;2.27;;
4084;SDS011;2057;50.858;6.572;2023-03-23T15:29:53;6.33;;;2.50;;
4084;SDS011;2057;50.858;6.572;2023-03-23T15:32:20;7.93;;;3.03;;
4084;SDS011;2057;50.858;6.572;2023-03-23T15:34:47;3.07;;;2.03;;
4084;SDS011;2057;50.858;6.572;2023-03-23T15:37:28;7.40;;;2.63;;
4084;SDS011;2057;50.858;6.572;2023-03-23T15:39:56;8.10;;;2.13;;
4084;SDS011;2057;50.858;6.572;2023-03-23T15:42:31;6.80;;;2.77;;
4084;SDS011;2057;50.858;6.572;2023-03-23T15:45:03;7.70;;;2.30;;
4084;SDS011;2057;50.858;6.572;2023-03-23T15:52:53;3.47;;;1.93;;
4084;SDS011;2057;50.858;6.572;2023-03-23T15:57:49;2.60;;;2.10;;
4084;SDS011;2057;50.858;6.572;2023-03-23T16:00:15;2.33;;;1.70;;
4084;SDS011;2057;50.858;6.572;2023-03-23T16:02:42;5.50;;;2.13;;
4084;SDS011;2057;50.858;6.572;2023-03-23T16:05:11;13.73;;;2.87;;
4084;SDS011;2057;50.858;6.572;2023-03-23T16:07:37;17.63;;;2.73;;
4084;SDS011;2057;50.858;6.572;2023-03-23T16:10:04;5.80;;;2.43;;
4084;SDS011;2057;50.858;6.572;2023-03-23T16:12:32;6.00;;;2.57;;
4084;SDS011;2057;50.858;6.572;2023-03-23T16:14:58;5.43;;;2.00;;
4084;SDS011;2057;50.858;6.572;2023-03-23T16:17:25;14.60;;;2.90;;
4084;SDS011;2057;50.858;6.572;2023-03-23T16:19:51;8.33;;;2.90;;
4084;SDS011;2057;50.858;6.572;2023-03-23T16:22:16;9.40;;;3.30;;
4084;SDS011;2057;50.858;6.572;2023-03-23T16:24:42;3.70;;;2.03;;
4084;SDS011;2057;50.858;6.572;2023-03-23T16:27:08;10.27;;;2.80;;
4084;SDS011;2057;50.858;6.572;2023-03-23T16:29:36;19.80;;;4.37;;
4084;SDS011;2057;50.858;6.572;2023-03-23T16:32:01;8.20;;;2.90;;
4084;SDS011;2057;50.858;6.572;2023-03-23T16:34:27;13.00;;;2.93;;
4084;SDS011;2057;50.858;6.572;2023-03-23T16:36:56;8.00;;;3.63;;
4084;SDS011;2057;50.858;6.572;2023-03-23T16:39:22;8.10;;;2.53;;
4084;SDS011;2057;50.858;6.572;2023-03-23T16:41:47;19.43;;;3.37;;
4084;SDS011;2057;50.858;6.572;2023-03-23T16:44:12;9.40;;;3.30;;
4084;SDS011;2057;50.858;6.572;2023-03-23T16:46:38;16.90;;;3.60;;
4084;SDS011;2057;50.858;6.572;2023-03-23T16:49:03;15.00;;;4.70;;
4084;SDS011;2057;50.858;6.572;2023-03-23T16:51:29;10.80;;;3.07;;
4084;SDS011;2057;50.858;6.572;2023-03-23T16:53:54;12.63;;;3.90;;
4084;SDS011;2057;50.858;6.572;2023-03-23T16:56:20;13.63;;;3.30;;
4084;SDS011;2057;50.858;6.572;2023-03-23T16:58:45;11.00;;;4.07;;
4084;SDS011;2057;50.858;6.572;2023-03-23T17:01:10;6.77;;;3.60;;
4084;SDS011;2057;50.858;6.572;2023-03-23T17:03:36;5.37;;;2.80;;
4084;SDS011;2057;50.858;6.572;2023-03-23T17:06:03;6.53;;;2.90;;
4084;SDS011;2057;50.858;6.572;2023-03-23T17:08:29;6.67;;;3.57;;
4084;SDS011;2057;50.858;6.572;2023-03-23T17:10:55;7.43;;;3.07;;
4084;SDS011;2057;50.858;6.572;2023-03-23T17:13:21;5.60;;;2.30;;
4084;SDS011;2057;50.858;6.572;2023-03-23T17:15:46;10.90;;;2.80;;
4084;SDS011;2057;50.858;6.572;2023-03-23T17:18:16;3.30;;;2.40;;
4084;SDS011;2057;50.858;6.572;2023-03-23T17:20:41;11.73;;;3.50;;
4084;SDS011;2057;50.858;6.572;2023-03-23T17:23:07;5.40;;;2.40;;
4084;SDS011;2057;50.858;6.572;2023-03-23T17:25:32;15.00;;;3.80;;
4084;SDS011;2057;50.858;6.572;2023-03-23T17:27:58;20.27;;;4.20;;
4084;SDS011;2057;50.858;6.572;2023-03-23T17:30:23;13.03;;;3.40;;
4084;SDS011;2057;50.858;6.572;2023-03-23T17:32:49;13.00;;;3.67;;
4084;SDS011;2057;50.858;6.572;2023-03-23T17:35:14;8.43;;;3.53;;
4084;SDS011;2057;50.858;6.572;2023-03-23T17:37:41;15.90;;;3.10;;
4084;SDS011;2057;50.858;6.572;2023-03-23T17:40:07;9.03;;;2.70;;
4084;SDS011;2057;50.858;6.572;2023-03-23T17:42:34;13.87;;;3.43;;
4084;SDS011;2057;50.858;6.572;2023-03-23T17:45:01;3.97;;;2.87;;